Aérodrome :
LOGIN :

S'inscrire | Disclaimer

   EN    FR    IT 

 










Légende :    VFR   VFR Marginal   IFR   IFR Intensif   IFR Très Intensif
Visi : 
Plafond : 
>= 8 km
>= 3000ft
5 à 8 km
1000 à 3000 ft
1500m à 5 km
500 à 1000 ft
800 à 1500m
200 à 500 ft
< 800m
< 200 ft
Symboles :   Orages  Brouillard  Fortes neiges  Fortes précipitations  Vent > 20 kt
SIGMETs :   Divers  Orages  Givrage  Turbulence  Onde Orograph.  Cendres Volcan.






- Altitude de l'aérodrome : 274 ft
- Code IATA : PUY


LDPL - Pula

DERNIER METAR :
  • 040700Z 08012KT 9999 -RA SCT008 BKN014 OVC020 12/10 Q1012 TEMPO RA

METARs EXPIRÉS :
  • 040630Z 10014KT 9999 SCT007 BKN016 BKN020 13/11 Q1012 TEMPO 10015G25KT BKN007
  • 040600Z 10017KT 9999 -RA SCT005 BKN016 OVC020 13/11 Q1012 RERA TEMPO 10015G25KT BKN007
  • 040530Z 10013KT 7000 RA SCT010 BKN016 OVC020 13/11 Q1012 TEMPO 10015G25KT BKN010
  • 040500Z 10014G24KT 080V140 9999 BKN016 OVC020 14/11 Q1012 NOSIG
  • 040430Z 09014KT 9999 BKN016 OVC020 12/10 Q1012

TAF COR TAF LDPL
Valide du 04 à 06h jusqu'au 05 à 06h UTC


040606Z 0406/0506 10014KT 9999 SCT010 BKN030 TX14/0412Z TN09/0505Z
TEMPO 0406/0418 RA BKN010 OVC020
PROB30
TEMPO 0406/0413 10015G25KT 4000 TSRA BKN005 FEW015CB OVC020
BECMG 0413/0415 12008KT
PROB30
TEMPO 0418/0506 TSRA BKN010 FEW015CB BKN025
BECMG 0422/0500 24008KT



MET'MAP, la Météo Aéronautique d'un coup d'oeil ! - Copyright ORBIFLY Décembre 2007 - Disclaimer

ORBIFLY MET'MAP TEAM :

Programmation & Développement : Alexandra Zaïnal
Sur une idée originale de : Baudouin d'Aumeries
Soutien technique & logistique : Manuel Goepfert
Assistance : Marc-Olivier Méhu




SOURCES & CREDITS :

   NOAA